createdAt,value
2022-12-18T00:01:17.653Z,37.50
2022-12-18T00:03:45.338Z,37.47
2022-12-18T00:06:13.019Z,34.80
2022-12-18T00:08:39.619Z,35.97
2022-12-18T00:11:14.453Z,31.42
2022-12-18T00:13:41.427Z,36.17
2022-12-18T00:16:15.638Z,32.45
2022-12-18T00:18:43.315Z,32.55
2022-12-18T00:21:11.909Z,34.75
2022-12-18T00:23:39.803Z,34.08
2022-12-18T00:26:21.555Z,36.08
2022-12-18T00:28:48.898Z,37.38
2022-12-18T00:31:18.178Z,70.90
2022-12-18T00:33:45.391Z,38.28
2022-12-18T00:36:15.376Z,30.75
2022-12-18T00:38:43.781Z,35.10
2022-12-18T00:41:12.392Z,34.85
2022-12-18T00:43:40.024Z,33.70
2022-12-18T00:46:07.594Z,40.15
2022-12-18T00:48:34.160Z,36.45
2022-12-18T00:51:00.740Z,37.47
2022-12-18T00:53:27.232Z,34.92
2022-12-18T00:55:53.739Z,40.42
2022-12-18T00:58:20.224Z,31.85
2022-12-18T01:00:46.890Z,33.75
2022-12-18T01:03:14.972Z,34.40
2022-12-18T01:05:42.920Z,35.88
2022-12-18T01:08:09.650Z,33.25
2022-12-18T01:10:36.217Z,35.00
2022-12-18T01:13:03.100Z,36.13
2022-12-18T01:15:29.755Z,29.50
2022-12-18T01:17:56.301Z,34.88
2022-12-18T01:20:22.758Z,32.85
2022-12-18T01:22:49.327Z,32.88
2022-12-18T01:25:16.109Z,35.33
2022-12-18T01:27:42.678Z,30.90
2022-12-18T01:30:09.617Z,32.10
2022-12-18T01:32:36.168Z,31.30
2022-12-18T01:35:03.116Z,32.92
2022-12-18T01:37:29.698Z,31.67
2022-12-18T01:39:56.613Z,31.55
2022-12-18T01:42:23.097Z,27.70
2022-12-18T01:45:03.209Z,31.17
2022-12-18T01:47:46.489Z,25.10
2022-12-18T01:50:17.469Z,28.98
2022-12-18T01:52:47.694Z,29.83
2022-12-18T01:55:17.862Z,27.25
2022-12-18T01:57:44.653Z,32.00
2022-12-18T02:00:15.890Z,30.38
2022-12-18T02:02:44.940Z,29.42
2022-12-18T02:05:13.787Z,32.53
2022-12-18T02:07:55.313Z,24.13
2022-12-18T02:10:33.644Z,29.00
2022-12-18T02:13:08.057Z,32.72
2022-12-18T02:16:04.910Z,24.95
2022-12-18T02:18:41.616Z,25.13
2022-12-18T02:21:10.787Z,25.52
2022-12-18T02:23:52.811Z,28.58
2022-12-18T02:26:29.993Z,22.73
2022-12-18T02:29:04.358Z,30.15
2022-12-18T02:31:35.915Z,29.15
2022-12-18T02:34:06.281Z,29.05
2022-12-18T02:36:34.253Z,29.02
2022-12-18T02:39:02.744Z,29.30
2022-12-18T02:41:30.341Z,28.10
2022-12-18T02:43:59.503Z,29.15
2022-12-18T02:46:34.149Z,27.05
2022-12-18T02:49:35.634Z,28.15
2022-12-18T02:52:29.446Z,26.65
2022-12-18T02:55:16.938Z,25.20
2022-12-18T02:57:49.702Z,23.42
2022-12-18T03:00:24.207Z,26.85
2022-12-18T03:03:40.298Z,22.48
2022-12-18T03:06:24.771Z,22.70
2022-12-18T03:08:57.378Z,23.17
2022-12-18T03:11:48.086Z,28.17
2022-12-18T03:14:17.700Z,26.52
2022-12-18T03:16:46.496Z,24.83
2022-12-18T03:19:17.988Z,26.85
2022-12-18T03:21:48.422Z,26.92
2022-12-18T03:24:16.338Z,26.10
2022-12-18T03:26:47.726Z,23.75
2022-12-18T03:29:23.759Z,27.05
2022-12-18T03:32:00.281Z,28.42
2022-12-18T03:34:32.419Z,23.33
2022-12-18T03:36:59.654Z,27.33
2022-12-18T03:39:27.130Z,26.73
2022-12-18T03:42:24.399Z,22.23
2022-12-18T03:45:02.834Z,29.48
2022-12-18T03:47:37.552Z,28.05
2022-12-18T03:50:13.786Z,26.95
2022-12-18T03:52:50.001Z,26.05
2022-12-18T03:55:18.427Z,25.98
2022-12-18T03:57:46.906Z,26.63
2022-12-18T04:00:15.822Z,24.58
2022-12-18T04:02:49.911Z,29.17
2022-12-18T04:05:18.110Z,24.80
2022-12-18T04:07:47.938Z,25.60
2022-12-18T04:10:16.876Z,26.75
2022-12-18T04:12:43.892Z,23.27
2022-12-18T04:15:12.135Z,20.98
2022-12-18T04:17:39.996Z,23.58
2022-12-18T04:20:07.038Z,27.02
2022-12-18T04:22:33.501Z,26.67
2022-12-18T04:25:00.006Z,23.52
2022-12-18T04:27:26.555Z,25.05
2022-12-18T04:29:53.155Z,24.25
2022-12-18T04:32:19.697Z,22.83
2022-12-18T04:34:46.302Z,27.17
2022-12-18T04:37:12.859Z,26.83
2022-12-18T04:39:39.388Z,24.60
2022-12-18T04:42:06.025Z,24.80
2022-12-18T04:44:32.546Z,24.10
2022-12-18T04:46:59.164Z,24.45
2022-12-18T04:49:25.748Z,27.08
2022-12-18T04:51:52.720Z,26.42
2022-12-18T04:54:22.275Z,24.80
2022-12-18T04:56:49.779Z,25.58
2022-12-18T04:59:16.230Z,25.92
2022-12-18T05:01:42.882Z,22.83
2022-12-18T05:04:09.702Z,25.90
2022-12-18T05:06:36.403Z,25.20
2022-12-18T05:09:03.073Z,28.98
2022-12-18T05:11:29.551Z,30.27
2022-12-18T05:13:59.119Z,27.65
2022-12-18T05:16:25.723Z,31.60
2022-12-18T05:18:52.330Z,27.65
2022-12-18T05:21:18.822Z,27.45
2022-12-18T05:23:45.324Z,28.15
2022-12-18T05:26:16.911Z,32.35
2022-12-18T05:28:43.701Z,26.88
2022-12-18T05:31:10.764Z,29.00
2022-12-18T05:33:37.659Z,29.50
2022-12-18T05:36:07.753Z,27.00
2022-12-18T05:38:36.328Z,29.35
2022-12-18T05:41:03.582Z,32.40
2022-12-18T05:43:30.228Z,38.00
2022-12-18T05:45:57.899Z,34.65
2022-12-18T05:48:24.571Z,36.03
2022-12-18T05:50:51.929Z,38.38
2022-12-18T05:53:20.714Z,41.05
2022-12-18T05:55:47.820Z,38.95
2022-12-18T05:58:15.382Z,39.42
2022-12-18T06:00:47.045Z,44.30
2022-12-18T06:03:14.588Z,44.88
2022-12-18T06:05:44.250Z,35.72
2022-12-18T06:08:11.643Z,39.65
2022-12-18T06:10:38.807Z,40.67
2022-12-18T06:13:06.317Z,33.85
2022-12-18T06:15:33.135Z,41.20
2022-12-18T06:18:01.979Z,72.97
2022-12-18T06:20:33.603Z,51.30
2022-12-18T06:23:00.685Z,54.70
2022-12-18T06:25:27.282Z,55.88
2022-12-18T06:27:53.854Z,55.40
2022-12-18T06:30:20.494Z,57.15
2022-12-18T06:32:53.068Z,55.63
2022-12-18T06:35:22.982Z,60.15
2022-12-18T06:37:49.520Z,57.95
2022-12-18T06:40:16.019Z,60.20
2022-12-18T06:42:42.609Z,54.45
2022-12-18T06:45:09.773Z,65.28
2022-12-18T06:47:36.265Z,60.13
2022-12-18T06:50:03.474Z,62.67
2022-12-18T06:52:33.147Z,56.03
2022-12-18T06:54:59.700Z,55.38
2022-12-18T06:57:26.311Z,60.80
2022-12-18T06:59:52.895Z,62.83
2022-12-18T07:02:19.484Z,53.00
2022-12-18T07:04:46.113Z,54.78
2022-12-18T07:07:12.613Z,62.10
2022-12-18T07:09:39.123Z,63.38
2022-12-18T07:12:06.126Z,62.72
2022-12-18T07:14:32.606Z,61.33
2022-12-18T07:16:59.169Z,62.50
2022-12-18T07:19:26.774Z,56.63
2022-12-18T07:21:53.255Z,61.53
2022-12-18T07:24:19.915Z,59.17
2022-12-18T07:26:47.761Z,57.17
2022-12-18T07:29:14.347Z,69.57
2022-12-18T07:31:40.888Z,68.65
2022-12-18T07:34:11.492Z,73.22
2022-12-18T07:36:38.372Z,65.35
2022-12-18T07:39:04.974Z,65.82
2022-12-18T07:41:31.644Z,64.25
2022-12-18T07:43:58.214Z,87.22
2022-12-18T07:46:24.759Z,61.17
2022-12-18T07:48:51.363Z,61.65
2022-12-18T07:51:18.900Z,65.72
2022-12-18T07:53:45.571Z,57.50
2022-12-18T07:56:30.377Z,61.95
2022-12-18T07:58:58.086Z,54.20
2022-12-18T08:01:24.966Z,68.35
2022-12-18T08:03:52.202Z,51.80
2022-12-18T08:06:19.176Z,54.63
2022-12-18T08:08:45.809Z,54.72
2022-12-18T08:11:12.307Z,49.53
2022-12-18T08:13:39.137Z,56.45
2022-12-18T08:16:08.216Z,53.97
2022-12-18T08:18:37.051Z,56.88
2022-12-18T08:21:18.301Z,112.63
2022-12-18T08:23:46.265Z,58.35
2022-12-18T08:26:13.534Z,62.35
2022-12-18T08:28:40.887Z,63.38
2022-12-18T08:31:08.184Z,55.85
2022-12-18T08:33:35.566Z,58.75
2022-12-18T08:36:03.095Z,54.28
2022-12-18T08:38:29.607Z,50.65
2022-12-18T08:41:04.029Z,56.60
2022-12-18T08:43:49.326Z,57.33
2022-12-18T08:46:20.165Z,58.80
2022-12-18T08:48:47.361Z,50.78
2022-12-18T08:51:14.483Z,55.92
2022-12-18T08:53:41.540Z,52.28
2022-12-18T08:56:08.648Z,53.45
2022-12-18T08:58:35.179Z,50.08
2022-12-18T09:01:07.062Z,54.22
2022-12-18T09:03:34.105Z,52.72
2022-12-18T09:06:00.659Z,50.15
2022-12-18T09:08:27.959Z,49.10
2022-12-18T09:10:54.730Z,54.88
2022-12-18T09:13:21.896Z,63.08
2022-12-18T09:15:50.785Z,61.30
2022-12-18T09:18:20.027Z,52.85
2022-12-18T09:20:47.037Z,51.97
2022-12-18T09:23:13.709Z,49.40
2022-12-18T09:25:40.590Z,49.10
2022-12-18T09:28:11.949Z,52.17
2022-12-18T09:30:44.152Z,53.47
2022-12-18T09:33:10.930Z,46.83
2022-12-18T09:35:42.279Z,52.47
2022-12-18T09:38:11.157Z,50.30
2022-12-18T09:40:43.937Z,44.85
2022-12-18T09:43:38.398Z,48.80
2022-12-18T09:46:10.099Z,40.72
2022-12-18T09:48:42.815Z,47.38
2022-12-18T09:51:20.667Z,53.42
2022-12-18T09:53:55.013Z,51.30
2022-12-18T09:56:24.038Z,54.17
2022-12-18T09:58:59.461Z,49.25
2022-12-18T10:01:35.468Z,46.30
2022-12-18T10:04:09.880Z,55.45
2022-12-18T10:06:53.773Z,46.60
2022-12-18T10:09:31.074Z,40.20
2022-12-18T10:12:30.705Z,50.65
2022-12-18T10:15:28.749Z,58.60
2022-12-18T10:18:21.886Z,41.22
2022-12-18T10:21:04.807Z,53.10
2022-12-18T10:23:46.575Z,50.20
2022-12-18T10:26:14.758Z,47.70
2022-12-18T10:28:43.105Z,50.53
2022-12-18T10:31:19.576Z,46.38
2022-12-18T10:33:46.190Z,53.20
2022-12-18T10:36:13.206Z,50.75
2022-12-18T10:38:40.115Z,78.65
2022-12-18T10:41:19.131Z,55.08
2022-12-18T10:43:48.793Z,43.15
2022-12-18T10:46:20.765Z,45.60
2022-12-18T10:48:58.666Z,51.65
2022-12-18T10:51:31.728Z,48.67
2022-12-18T10:54:24.958Z,44.42
2022-12-18T10:56:51.446Z,49.22
2022-12-18T10:59:19.000Z,47.08
2022-12-18T11:01:52.835Z,46.15
2022-12-18T11:04:28.936Z,45.40
2022-12-18T11:07:05.879Z,50.20
2022-12-18T11:09:38.177Z,44.28
2022-12-18T11:12:09.347Z,48.38
2022-12-18T11:14:58.699Z,51.38
2022-12-18T11:17:36.921Z,54.53
2022-12-18T11:20:20.361Z,48.47
2022-12-18T11:22:58.397Z,47.33
2022-12-18T11:25:34.016Z,48.78
2022-12-18T11:28:26.023Z,47.83
2022-12-18T11:31:16.334Z,48.63
2022-12-18T11:34:26.974Z,50.67
2022-12-18T11:36:45.249Z,47.83
2022-12-18T11:39:26.149Z,49.67
2022-12-18T11:42:21.059Z,47.30
2022-12-18T11:44:54.876Z,51.83
2022-12-18T11:47:40.264Z,46.95
2022-12-18T11:50:33.815Z,49.38
2022-12-18T11:53:05.620Z,51.30
2022-12-18T11:56:07.309Z,47.10
2022-12-18T12:01:28.361Z,51.22
2022-12-18T12:03:57.634Z,46.65
2022-12-18T12:06:44.643Z,55.05
2022-12-18T12:09:35.064Z,47.22
2022-12-18T12:12:07.448Z,50.53
2022-12-18T12:14:56.380Z,78.07
2022-12-18T12:17:49.202Z,51.70
2022-12-18T12:20:38.736Z,51.08
2022-12-18T12:23:11.224Z,59.25
2022-12-18T12:26:01.730Z,56.15
2022-12-18T12:29:15.483Z,53.35
2022-12-18T12:31:55.038Z,53.55
2022-12-18T12:34:32.440Z,57.50
2022-12-18T12:37:14.168Z,57.30
2022-12-18T12:39:43.278Z,56.25
2022-12-18T12:42:42.035Z,61.47
2022-12-18T12:45:34.851Z,60.92
2022-12-18T12:48:03.438Z,60.20
2022-12-18T12:50:35.186Z,60.25
2022-12-18T12:53:07.065Z,50.30
2022-12-18T12:55:33.789Z,57.42
2022-12-18T12:58:09.479Z,53.55
2022-12-18T13:00:52.240Z,57.25
2022-12-18T13:06:14.201Z,58.17
2022-12-18T13:09:01.474Z,60.60
2022-12-18T13:11:59.820Z,58.35
2022-12-18T13:14:33.883Z,60.40
2022-12-18T13:17:26.228Z,62.40
2022-12-18T13:20:05.589Z,59.15
2022-12-18T13:22:49.989Z,61.13
2022-12-18T13:25:31.840Z,59.20
2022-12-18T13:28:10.003Z,65.53
2022-12-18T13:30:36.472Z,59.88
2022-12-18T13:33:15.576Z,58.83
2022-12-18T13:36:02.434Z,58.55
2022-12-18T13:38:37.070Z,59.50
2022-12-18T13:41:23.612Z,59.00
2022-12-18T13:43:52.475Z,53.38
2022-12-18T13:46:29.413Z,64.35
2022-12-18T13:49:14.148Z,54.90
2022-12-18T13:51:52.692Z,80.53
2022-12-18T13:54:38.631Z,53.85
2022-12-18T13:57:07.812Z,63.65
2022-12-18T13:59:35.377Z,65.57
2022-12-18T14:02:27.404Z,62.58
2022-12-18T14:04:55.228Z,69.60
2022-12-18T14:07:27.225Z,73.28
2022-12-18T14:12:57.737Z,70.60
2022-12-18T14:15:27.354Z,63.33
2022-12-18T14:17:56.866Z,69.93
2022-12-18T14:20:25.155Z,76.55
2022-12-18T14:22:51.785Z,67.75
2022-12-18T14:25:23.147Z,74.78
2022-12-18T14:28:16.242Z,68.10
2022-12-18T14:30:45.259Z,69.63
2022-12-18T14:33:19.614Z,67.20
2022-12-18T14:35:56.305Z,60.53
2022-12-18T14:38:28.316Z,69.07
2022-12-18T14:41:00.154Z,64.82
2022-12-18T14:43:33.217Z,65.55
2022-12-18T14:46:00.458Z,64.85
2022-12-18T14:48:40.001Z,58.88
2022-12-18T14:51:17.770Z,67.88
2022-12-18T14:53:53.622Z,65.30
2022-12-18T14:56:25.076Z,55.17
2022-12-18T14:59:00.367Z,57.08
2022-12-18T15:01:30.496Z,60.42
2022-12-18T15:03:58.597Z,65.28
2022-12-18T15:06:30.253Z,53.70
2022-12-18T15:08:57.526Z,55.75
2022-12-18T15:11:33.154Z,55.25
2022-12-18T15:14:01.216Z,61.13
2022-12-18T15:16:27.948Z,59.45
2022-12-18T15:18:54.698Z,55.53
2022-12-18T15:21:22.337Z,61.13
2022-12-18T15:23:52.228Z,67.05
2022-12-18T15:26:22.008Z,60.35
2022-12-18T15:28:51.198Z,61.60
2022-12-18T15:31:18.052Z,61.83
2022-12-18T15:34:00.734Z,64.00
2022-12-18T15:36:37.441Z,66.20
2022-12-18T15:39:07.166Z,59.80
2022-12-18T15:41:37.468Z,63.90
2022-12-18T15:44:20.735Z,54.85
2022-12-18T15:46:47.330Z,60.22
2022-12-18T15:49:13.847Z,68.43
2022-12-18T15:51:40.578Z,64.78
2022-12-18T15:54:12.859Z,62.25
2022-12-18T15:56:57.938Z,60.05
2022-12-18T15:59:26.647Z,63.22
2022-12-18T16:01:56.816Z,65.90
2022-12-18T16:04:24.656Z,65.80
2022-12-18T16:09:39.760Z,61.70
2022-12-18T16:12:07.828Z,61.72
2022-12-18T16:14:34.304Z,54.15
2022-12-18T16:17:03.666Z,58.83
2022-12-18T16:19:31.137Z,58.60
2022-12-18T16:21:58.989Z,58.67
2022-12-18T16:24:31.104Z,60.72
2022-12-18T16:27:00.340Z,67.93
2022-12-18T16:29:28.724Z,67.28
2022-12-18T16:32:00.634Z,61.08
2022-12-18T16:34:35.484Z,62.42
2022-12-18T16:37:08.792Z,56.55
2022-12-18T16:39:36.398Z,63.42
2022-12-18T16:42:06.283Z,70.55
2022-12-18T16:44:34.545Z,71.72
2022-12-18T16:47:03.277Z,72.25
2022-12-18T16:49:30.407Z,73.10
2022-12-18T16:51:56.981Z,62.58
2022-12-18T16:54:23.531Z,58.67
2022-12-18T16:56:51.659Z,56.95
2022-12-18T16:59:18.709Z,55.05
2022-12-18T17:01:45.332Z,54.72
2022-12-18T17:04:12.008Z,62.83
2022-12-18T17:06:44.251Z,68.53
2022-12-18T17:09:16.371Z,62.13
2022-12-18T17:11:43.683Z,65.15
2022-12-18T17:14:13.682Z,71.20
2022-12-18T17:16:40.285Z,62.05
2022-12-18T17:19:09.805Z,57.03
2022-12-18T17:21:40.173Z,56.70
2022-12-18T17:24:07.834Z,59.05
2022-12-18T17:26:34.493Z,45.65
2022-12-18T17:29:01.107Z,56.03
2022-12-18T17:31:29.770Z,56.35
2022-12-18T17:33:57.068Z,56.40
2022-12-18T17:36:24.802Z,51.55
2022-12-18T17:38:53.231Z,57.97
2022-12-18T17:41:20.287Z,64.32
2022-12-18T17:43:58.148Z,48.85
2022-12-18T17:46:25.975Z,53.63
2022-12-18T17:48:54.941Z,50.15
2022-12-18T17:51:21.566Z,52.25
2022-12-18T17:53:48.315Z,56.75
2022-12-18T17:56:17.344Z,61.00
2022-12-18T17:58:44.537Z,53.90
2022-12-18T18:01:15.166Z,60.70
2022-12-18T18:03:43.791Z,57.47
2022-12-18T18:06:11.594Z,56.72
2022-12-18T18:08:38.123Z,61.25
2022-12-18T18:11:30.189Z,49.35
2022-12-18T18:14:02.755Z,49.22
2022-12-18T18:16:37.739Z,47.03
2022-12-18T18:19:07.095Z,51.17
2022-12-18T18:21:37.730Z,55.75
2022-12-18T18:24:05.866Z,50.50
2022-12-18T18:26:33.501Z,58.40
2022-12-18T18:29:01.968Z,55.88
2022-12-18T18:31:31.394Z,55.95
2022-12-18T18:33:58.690Z,52.03
2022-12-18T18:36:25.570Z,58.20
2022-12-18T18:38:52.701Z,56.30
2022-12-18T18:41:19.991Z,38.17
2022-12-18T18:43:46.641Z,50.17
2022-12-18T18:46:15.482Z,52.65
2022-12-18T18:48:43.759Z,47.72
2022-12-18T18:51:20.651Z,54.05
2022-12-18T18:53:50.417Z,52.88
2022-12-18T18:59:08.771Z,57.92
2022-12-18T19:01:35.424Z,47.03
2022-12-18T19:04:05.290Z,45.70
2022-12-18T19:06:31.943Z,46.53
2022-12-18T19:09:02.567Z,45.92
2022-12-18T19:11:47.402Z,51.47
2022-12-18T19:14:15.784Z,52.30
2022-12-18T19:16:43.468Z,49.13
2022-12-18T19:19:10.906Z,222.32
2022-12-18T19:21:38.330Z,50.40
2022-12-18T19:24:05.924Z,39.17
2022-12-18T19:26:32.632Z,44.85
2022-12-18T19:29:06.931Z,47.95
2022-12-18T19:31:36.347Z,33.20
2022-12-18T19:34:05.371Z,53.10
2022-12-18T19:36:32.915Z,54.50
2022-12-18T19:39:01.306Z,51.08
2022-12-18T19:41:32.839Z,57.95
2022-12-18T19:43:59.631Z,58.65
2022-12-18T19:46:26.249Z,57.58
2022-12-18T19:48:53.701Z,55.30
2022-12-18T19:51:23.817Z,38.92
2022-12-18T19:53:56.452Z,53.28
2022-12-18T19:56:26.903Z,23.70
2022-12-18T19:58:54.871Z,44.08
2022-12-18T20:01:23.956Z,45.72
2022-12-18T20:03:52.547Z,46.38
2022-12-18T20:06:26.148Z,44.75
2022-12-18T20:08:59.976Z,23.50
2022-12-18T20:11:28.314Z,51.10
2022-12-18T20:13:54.959Z,47.40
2022-12-18T20:16:21.678Z,43.53
2022-12-18T20:18:49.230Z,45.58
2022-12-18T20:21:16.083Z,32.45
2022-12-18T20:23:43.321Z,26.10
2022-12-18T20:26:10.648Z,28.33
2022-12-18T20:28:37.344Z,34.75
2022-12-18T20:31:10.365Z,24.08
2022-12-18T20:33:40.416Z,39.08
2022-12-18T20:36:14.237Z,38.70
2022-12-18T20:38:42.126Z,39.60
2022-12-18T20:41:17.344Z,38.78
2022-12-18T20:43:45.060Z,40.28
2022-12-18T20:46:14.405Z,47.30
2022-12-18T20:48:42.206Z,26.23
2022-12-18T20:51:14.641Z,39.80
2022-12-18T20:53:42.069Z,40.30
2022-12-18T20:56:21.290Z,30.65
2022-12-18T20:58:49.745Z,25.10
2022-12-18T21:01:18.902Z,42.50
2022-12-18T21:03:46.586Z,41.53
2022-12-18T21:06:15.439Z,40.20
2022-12-18T21:08:42.486Z,39.83
2022-12-18T21:11:40.875Z,22.10
2022-12-18T21:14:19.591Z,33.75
2022-12-18T21:16:47.556Z,47.92
2022-12-18T21:19:20.630Z,25.35
2022-12-18T21:21:47.487Z,34.05
2022-12-18T21:24:14.412Z,36.88
2022-12-18T21:26:46.090Z,39.78
2022-12-18T21:29:22.689Z,31.08
2022-12-18T21:31:50.613Z,43.50
2022-12-18T21:34:20.412Z,39.10
2022-12-18T21:36:47.761Z,48.17
2022-12-18T21:39:16.050Z,45.97
2022-12-18T21:42:01.593Z,47.75
2022-12-18T21:44:28.847Z,47.10
2022-12-18T21:47:00.581Z,47.63
2022-12-18T21:49:33.444Z,48.03
2022-12-18T21:52:01.282Z,43.67
2022-12-18T21:54:29.143Z,43.22
2022-12-18T21:56:58.373Z,36.33
2022-12-18T21:59:36.044Z,37.22
2022-12-18T22:02:11.598Z,33.10
2022-12-18T22:04:38.228Z,33.75
2022-12-18T22:07:06.128Z,32.88
2022-12-18T22:09:32.698Z,32.75
2022-12-18T22:11:59.608Z,35.28
2022-12-18T22:14:27.074Z,40.30
2022-12-18T22:16:55.927Z,43.83
2022-12-18T22:19:22.419Z,40.90
2022-12-18T22:21:49.498Z,29.67
2022-12-18T22:24:18.814Z,22.70
2022-12-18T22:26:46.438Z,46.72
2022-12-18T22:29:37.236Z,40.20
2022-12-18T22:32:05.195Z,36.65
2022-12-18T22:34:36.478Z,35.92
2022-12-18T22:37:04.862Z,45.40
2022-12-18T22:39:31.906Z,34.67
2022-12-18T22:41:58.954Z,38.85
2022-12-18T22:44:25.690Z,43.28
2022-12-18T22:47:05.532Z,40.38
2022-12-18T22:49:33.941Z,40.92
2022-12-18T22:52:02.176Z,45.10
2022-12-18T22:54:28.688Z,47.05
2022-12-18T22:56:55.643Z,39.15
2022-12-18T22:59:23.156Z,41.45
2022-12-18T23:01:52.928Z,39.45
2022-12-18T23:04:29.069Z,41.00
2022-12-18T23:07:03.656Z,40.97
2022-12-18T23:09:30.323Z,43.53
2022-12-18T23:11:56.843Z,40.90
2022-12-18T23:14:23.373Z,36.03
2022-12-18T23:16:49.977Z,39.70
2022-12-18T23:19:18.896Z,42.45
2022-12-18T23:21:45.413Z,45.35
2022-12-18T23:24:12.078Z,41.45
2022-12-18T23:26:38.974Z,31.70
2022-12-18T23:29:05.603Z,37.45
2022-12-18T23:31:34.863Z,41.38
2022-12-18T23:34:03.006Z,27.17
2022-12-18T23:36:30.542Z,37.42
2022-12-18T23:39:01.318Z,32.50
2022-12-18T23:41:32.697Z,34.05
2022-12-18T23:44:00.369Z,22.40
2022-12-18T23:46:29.649Z,23.85
2022-12-18T23:48:57.840Z,34.65
2022-12-18T23:51:25.788Z,32.55
2022-12-18T23:53:53.741Z,32.65
2022-12-18T23:56:20.268Z,28.45
2022-12-18T23:58:48.913Z,33.25
